createdAt,value
2019-04-26T00:01:12.521Z,5.73
2019-04-26T00:03:44.232Z,5.60
2019-04-26T00:06:12.396Z,4.80
2019-04-26T00:08:41.261Z,5.80
2019-04-26T00:11:18.169Z,5.07
2019-04-26T00:14:03.745Z,5.20
2019-04-26T00:16:48.700Z,5.53
2019-04-26T00:19:15.751Z,6.00
2019-04-26T00:21:42.880Z,5.13
2019-04-26T00:24:11.632Z,5.10
2019-04-26T00:26:38.556Z,5.27
2019-04-26T00:29:05.262Z,5.30
2019-04-26T00:31:31.912Z,5.70
2019-04-26T00:33:58.597Z,5.43
2019-04-26T00:36:25.345Z,6.27
2019-04-26T00:38:52.034Z,5.80
2019-04-26T00:41:20.560Z,6.10
2019-04-26T00:43:48.742Z,6.03
2019-04-26T00:46:16.723Z,5.97
2019-04-26T00:48:43.688Z,6.30
2019-04-26T00:51:10.914Z,6.43
2019-04-26T00:53:39.607Z,6.23
2019-04-26T00:56:07.779Z,6.10
2019-04-26T00:58:35.331Z,6.30
2019-04-26T01:01:02.303Z,6.37
2019-04-26T01:03:28.971Z,6.90
2019-04-26T01:06:00.233Z,6.07
2019-04-26T01:08:26.238Z,6.77
2019-04-26T01:10:52.824Z,6.63
2019-04-26T01:13:19.897Z,6.30
2019-04-26T01:15:46.604Z,6.20
2019-04-26T01:18:13.216Z,6.87
2019-04-26T01:20:42.365Z,6.53
2019-04-26T01:23:11.640Z,6.57
2019-04-26T01:25:51.277Z,6.50
2019-04-26T01:28:31.192Z,6.50
2019-04-26T01:31:01.076Z,7.20
2019-04-26T01:33:28.475Z,7.57
2019-04-26T01:35:55.381Z,6.90
2019-04-26T01:38:22.199Z,7.10
2019-04-26T01:40:51.752Z,7.40
2019-04-26T01:43:26.382Z,7.10
2019-04-26T01:46:00.229Z,6.50
2019-04-26T01:48:42.931Z,6.80
2019-04-26T01:51:12.904Z,7.37
2019-04-26T01:53:39.921Z,8.07
2019-04-26T01:56:06.631Z,7.37
2019-04-26T01:58:33.353Z,7.35
2019-04-26T02:01:09.100Z,8.20
2019-04-26T02:03:36.213Z,8.00
2019-04-26T02:06:02.959Z,7.13
2019-04-26T02:08:30.367Z,7.77
2019-04-26T02:10:57.232Z,8.20
2019-04-26T02:13:25.182Z,7.73
2019-04-26T02:15:52.313Z,8.63
2019-04-26T02:18:18.929Z,8.90
2019-04-26T02:21:01.875Z,8.47
2019-04-26T02:23:52.486Z,8.67
2019-04-26T02:26:35.569Z,8.30
2019-04-26T02:29:05.336Z,8.67
2019-04-26T02:31:33.720Z,8.87
2019-04-26T02:34:01.863Z,9.30
2019-04-26T02:36:50.783Z,9.00
2019-04-26T02:39:01.388Z,8.90
2019-04-26T02:41:31.082Z,8.90
2019-04-26T02:44:00.872Z,9.60
2019-04-26T02:46:39.933Z,9.50
2019-04-26T02:49:30.713Z,10.70
2019-04-26T02:52:13.160Z,10.27
2019-04-26T02:54:46.654Z,10.10
2019-04-26T02:57:22.669Z,10.73
2019-04-26T02:59:54.745Z,10.03
2019-04-26T03:02:23.183Z,10.07
2019-04-26T03:05:04.937Z,11.43
2019-04-26T03:07:55.329Z,10.63
2019-04-26T03:10:32.152Z,10.77
2019-04-26T03:13:01.944Z,11.00
2019-04-26T03:16:04.104Z,11.60
2019-04-26T03:18:55.045Z,11.80
2019-04-26T03:21:36.389Z,11.47
2019-04-26T03:24:13.879Z,11.30
2019-04-26T03:26:47.502Z,10.83
2019-04-26T03:29:22.829Z,11.50
2019-04-26T03:32:07.014Z,11.43
2019-04-26T03:34:52.934Z,11.60
2019-04-26T03:37:29.477Z,11.70
2019-04-26T03:40:30.784Z,11.17
2019-04-26T03:43:22.801Z,12.73
2019-04-26T03:46:02.836Z,11.17
2019-04-26T03:48:44.805Z,12.13
2019-04-26T03:51:19.273Z,12.10
2019-04-26T03:53:54.655Z,12.70
2019-04-26T03:56:55.034Z,11.97
2019-04-26T03:59:42.695Z,13.43
2019-04-26T04:02:38.696Z,13.33
2019-04-26T04:05:22.698Z,12.60
2019-04-26T04:07:52.747Z,13.33
2019-04-26T04:10:24.870Z,13.27
2019-04-26T04:13:08.257Z,12.50
2019-04-26T04:15:44.075Z,12.60
2019-04-26T04:18:18.957Z,12.00
2019-04-26T04:21:22.664Z,13.33
2019-04-26T04:24:05.112Z,14.03
2019-04-26T04:26:57.691Z,13.80
2019-04-26T04:30:15.234Z,14.07
2019-04-26T04:32:57.965Z,14.07
2019-04-26T04:35:28.426Z,14.70
2019-04-26T04:38:09.649Z,14.30
2019-04-26T04:41:19.206Z,13.07
2019-04-26T04:43:58.589Z,13.73
2019-04-26T04:47:23.878Z,14.37
2019-04-26T04:50:08.333Z,14.40
2019-04-26T04:52:44.971Z,13.40
2019-04-26T04:55:21.839Z,13.93
2019-04-26T04:58:08.392Z,13.47
2019-04-26T05:01:46.253Z,14.80
2019-04-26T05:04:25.799Z,14.37
2019-04-26T05:07:30.016Z,14.93
2019-04-26T05:10:20.073Z,14.10
2019-04-26T05:13:23.084Z,14.57
2019-04-26T05:16:23.657Z,14.20
2019-04-26T05:19:36.109Z,14.23
2019-04-26T05:22:35.173Z,13.63
2019-04-26T05:25:46.871Z,14.10
2019-04-26T05:28:27.886Z,15.17
2019-04-26T05:31:23.227Z,14.27
2019-04-26T05:34:12.542Z,13.83
2019-04-26T05:37:06.523Z,14.27
2019-04-26T05:39:51.206Z,15.40
2019-04-26T05:43:18.636Z,14.27
2019-04-26T05:46:22.855Z,15.67
2019-04-26T05:49:30.805Z,14.77
2019-04-26T05:52:47.484Z,14.13
2019-04-26T05:56:02.490Z,15.17
2019-04-26T05:59:02.070Z,14.70
2019-04-26T06:02:23.175Z,14.90
2019-04-26T06:05:22.089Z,14.27
2019-04-26T06:08:17.077Z,14.37
2019-04-26T06:10:55.905Z,14.30
2019-04-26T06:13:54.161Z,15.50
2019-04-26T06:16:56.935Z,13.80
2019-04-26T06:19:51.831Z,14.73
2019-04-26T06:22:34.455Z,14.63
2019-04-26T06:25:28.851Z,14.23
2019-04-26T06:28:05.198Z,13.90
2019-04-26T06:31:03.548Z,15.17
2019-04-26T06:34:14.852Z,18.40
2019-04-26T06:36:56.081Z,14.43
2019-04-26T06:39:42.733Z,13.70
2019-04-26T06:42:36.200Z,13.70
2019-04-26T06:45:33.624Z,13.60
2019-04-26T06:48:09.861Z,13.27
2019-04-26T06:50:43.303Z,13.57
2019-04-26T06:53:37.455Z,13.20
2019-04-26T06:56:31.872Z,13.90
2019-04-26T06:59:08.782Z,13.17
2019-04-26T07:02:00.801Z,18.03
2019-04-26T07:05:04.764Z,13.30
2019-04-26T07:08:03.083Z,11.77
2019-04-26T07:11:00.667Z,12.00
2019-04-26T07:14:06.817Z,12.90
2019-04-26T07:16:50.731Z,12.60
2019-04-26T07:20:06.052Z,11.20
2019-04-26T07:23:12.761Z,11.00
2019-04-26T07:26:13.775Z,11.20
2019-04-26T07:28:55.045Z,11.27
2019-04-26T07:31:37.945Z,11.30
2019-04-26T07:34:37.812Z,10.87
2019-04-26T07:37:43.490Z,11.13
2019-04-26T07:40:56.675Z,12.57
2019-04-26T07:43:49.699Z,11.60
2019-04-26T07:46:52.219Z,11.10
2019-04-26T07:50:25.997Z,11.30
2019-04-26T07:53:19.047Z,12.07
2019-04-26T07:55:56.644Z,10.90
2019-04-26T07:59:02.853Z,10.70
2019-04-26T08:01:56.401Z,10.83
2019-04-26T08:04:31.463Z,11.03
2019-04-26T08:07:10.353Z,10.00
2019-04-26T08:09:41.610Z,9.93
2019-04-26T08:12:12.248Z,10.83
2019-04-26T08:15:12.240Z,10.70
2019-04-26T08:17:56.264Z,10.90
2019-04-26T08:21:09.968Z,10.97
2019-04-26T08:23:42.211Z,10.27
2019-04-26T08:26:13.284Z,10.00
2019-04-26T08:28:42.692Z,24.90
2019-04-26T08:31:15.537Z,9.27
2019-04-26T08:33:49.868Z,12.07
2019-04-26T08:36:19.494Z,8.90
2019-04-26T08:38:48.848Z,8.37
2019-04-26T08:41:20.002Z,8.67
2019-04-26T08:44:09.742Z,10.00
2019-04-26T08:46:57.071Z,8.37
2019-04-26T08:49:42.729Z,9.17
2019-04-26T08:52:14.588Z,9.90
2019-04-26T08:54:49.153Z,9.60
2019-04-26T08:57:17.296Z,9.97
2019-04-26T08:59:52.710Z,9.30
2019-04-26T09:02:37.263Z,11.83
2019-04-26T09:05:45.734Z,8.90
2019-04-26T09:08:15.602Z,9.83
2019-04-26T09:10:47.061Z,9.37
2019-04-26T09:13:19.526Z,9.90
2019-04-26T09:16:06.943Z,9.97
2019-04-26T09:18:42.880Z,10.50
2019-04-26T09:21:02.354Z,10.90
2019-04-26T09:23:51.869Z,11.33
2019-04-26T09:26:26.426Z,9.67
2019-04-26T09:29:09.943Z,8.50
2019-04-26T09:31:45.180Z,8.70
2019-04-26T09:34:13.340Z,10.57
2019-04-26T09:36:40.094Z,9.77
2019-04-26T09:39:09.869Z,11.30
2019-04-26T09:41:37.020Z,8.70
2019-04-26T09:44:11.416Z,14.03
2019-04-26T09:46:56.770Z,21.33
2019-04-26T09:49:27.717Z,8.90
2019-04-26T09:51:55.210Z,9.80
2019-04-26T09:54:21.918Z,8.50
2019-04-26T09:56:48.881Z,8.50
2019-04-26T09:59:15.492Z,9.43
2019-04-26T10:01:42.491Z,12.53
2019-04-26T10:04:09.348Z,8.40
2019-04-26T10:06:36.273Z,8.90
2019-04-26T10:09:10.898Z,9.03
2019-04-26T10:11:43.523Z,9.40
2019-04-26T10:14:14.675Z,11.20
2019-04-26T10:16:48.081Z,8.57
2019-04-26T10:19:18.313Z,12.30
2019-04-26T10:21:45.374Z,8.77
2019-04-26T10:24:12.417Z,9.03
2019-04-26T10:26:39.058Z,8.83
2019-04-26T10:29:06.088Z,8.50
2019-04-26T10:31:32.783Z,8.53
2019-04-26T10:33:59.494Z,8.80
2019-04-26T10:36:29.675Z,9.07
2019-04-26T10:38:58.354Z,8.00
2019-04-26T10:41:23.425Z,8.70
2019-04-26T10:43:50.132Z,8.50
2019-04-26T10:46:16.792Z,8.13
2019-04-26T10:48:45.395Z,9.57
2019-04-26T10:51:13.857Z,7.80
2019-04-26T10:54:01.547Z,8.00
2019-04-26T10:56:38.813Z,8.63
2019-04-26T10:59:11.050Z,7.80
2019-04-26T11:01:38.008Z,7.10
2019-04-26T11:04:04.956Z,9.30
2019-04-26T11:06:31.720Z,9.30
2019-04-26T11:08:58.481Z,6.87
2019-04-26T11:11:25.244Z,7.80
2019-04-26T11:13:52.082Z,8.50
2019-04-26T11:16:18.844Z,8.93
2019-04-26T11:18:45.612Z,8.60
2019-04-26T11:21:12.304Z,8.87
2019-04-26T11:23:41.008Z,10.57
2019-04-26T11:26:07.940Z,8.30
2019-04-26T11:28:34.599Z,9.83
2019-04-26T11:31:01.337Z,8.90
2019-04-26T11:33:28.068Z,7.47
2019-04-26T11:35:54.816Z,7.10
2019-04-26T11:38:21.929Z,8.33
2019-04-26T11:40:58.415Z,6.83
2019-04-26T11:43:19.563Z,7.30
2019-04-26T11:45:49.356Z,6.20
2019-04-26T11:48:14.540Z,6.90
2019-04-26T11:50:41.457Z,6.53
2019-04-26T11:53:10.155Z,5.80
2019-04-26T11:55:36.773Z,5.40
2019-04-26T11:58:03.615Z,6.13
2019-04-26T12:00:35.594Z,6.63
2019-04-26T12:03:24.947Z,8.53
2019-04-26T12:06:13.409Z,7.40
2019-04-26T12:08:52.645Z,8.70
2019-04-26T12:11:31.340Z,7.60
2019-04-26T12:13:55.458Z,9.77
2019-04-26T12:16:20.697Z,9.00
2019-04-26T12:18:47.307Z,8.60
2019-04-26T12:21:13.961Z,6.73
2019-04-26T12:23:40.702Z,6.93
2019-04-26T12:26:07.698Z,6.80
2019-04-26T12:28:36.280Z,7.80
2019-04-26T12:31:03.027Z,7.47
2019-04-26T12:33:29.738Z,7.70
2019-04-26T12:35:57.301Z,7.77
2019-04-26T12:38:28.634Z,6.53
2019-04-26T12:40:53.015Z,5.80
2019-04-26T12:43:23.960Z,6.60
2019-04-26T12:45:58.998Z,7.07
2019-04-26T12:48:25.717Z,6.33
2019-04-26T12:50:52.332Z,5.50
2019-04-26T12:53:19.336Z,5.80
2019-04-26T12:55:49.236Z,5.40
2019-04-26T12:58:15.177Z,4.77
2019-04-26T13:00:53.202Z,4.20
2019-04-26T13:03:20.075Z,5.47
2019-04-26T13:05:39.846Z,5.03
2019-04-26T13:08:06.533Z,4.40
2019-04-26T13:10:46.333Z,4.57
2019-04-26T13:13:35.876Z,4.40
2019-04-26T13:16:09.285Z,5.90
2019-04-26T13:18:35.972Z,4.50
2019-04-26T13:21:04.305Z,3.73
2019-04-26T13:23:31.423Z,4.00
2019-04-26T13:26:04.048Z,5.23
2019-04-26T13:28:30.850Z,4.70
2019-04-26T13:30:57.816Z,4.20
2019-04-26T13:33:27.555Z,4.03
2019-04-26T13:36:02.850Z,4.03
2019-04-26T13:38:22.093Z,3.70
2019-04-26T13:40:48.890Z,3.60
2019-04-26T13:43:16.183Z,3.53
2019-04-26T13:46:11.561Z,3.93
2019-04-26T13:48:52.122Z,3.47
2019-04-26T13:51:19.634Z,3.97
2019-04-26T13:53:46.371Z,3.53
2019-04-26T13:56:12.975Z,3.60
2019-04-26T13:58:39.703Z,4.00
2019-04-26T14:01:07.616Z,3.10
2019-04-26T14:03:34.271Z,3.10
2019-04-26T14:06:01.115Z,3.20
2019-04-26T14:08:27.764Z,3.40
2019-04-26T14:10:54.371Z,2.90
2019-04-26T14:13:24.933Z,3.20
2019-04-26T14:15:52.033Z,2.53
2019-04-26T14:18:18.408Z,2.70
2019-04-26T14:20:45.268Z,2.97
2019-04-26T14:23:24.007Z,3.07
2019-04-26T14:25:57.446Z,2.50
2019-04-26T14:28:25.231Z,2.90
2019-04-26T14:30:52.140Z,2.70
2019-04-26T14:33:18.765Z,2.77
2019-04-26T14:35:46.247Z,3.93
2019-04-26T14:38:13.936Z,3.07
2019-04-26T14:40:43.071Z,2.83
2019-04-26T14:43:09.322Z,2.40
2019-04-26T14:45:36.383Z,2.63
2019-04-26T14:48:05.495Z,2.17
2019-04-26T14:50:33.561Z,4.10
2019-04-26T14:53:02.451Z,2.60
2019-04-26T14:55:29.040Z,2.63
2019-04-26T14:57:55.681Z,2.30
2019-04-26T15:00:27.438Z,2.90
2019-04-26T15:03:17.373Z,2.40
2019-04-26T15:05:55.262Z,3.00
2019-04-26T15:08:22.626Z,3.17
2019-04-26T15:10:53.019Z,2.53
2019-04-26T15:13:20.863Z,3.17
2019-04-26T15:15:46.518Z,2.50
2019-04-26T15:18:13.553Z,4.20
2019-04-26T15:20:40.353Z,3.03
2019-04-26T15:23:07.248Z,4.47
2019-04-26T15:25:36.673Z,2.70
2019-04-26T15:28:02.685Z,2.90
2019-04-26T15:30:29.467Z,2.30
2019-04-26T15:32:56.068Z,3.70
2019-04-26T15:35:23.183Z,3.63
2019-04-26T15:37:50.029Z,3.77
2019-04-26T15:40:33.507Z,3.60
2019-04-26T15:43:14.210Z,2.97
2019-04-26T15:45:42.459Z,3.20
2019-04-26T15:48:27.657Z,3.77
2019-04-26T15:50:55.402Z,5.53
2019-04-26T15:53:23.983Z,3.10
2019-04-26T15:55:52.402Z,3.77
2019-04-26T15:58:19.272Z,2.93
2019-04-26T16:00:45.932Z,3.10
2019-04-26T16:03:12.850Z,3.10
2019-04-26T16:05:39.844Z,3.47
2019-04-26T16:08:06.548Z,3.13
2019-04-26T16:10:34.607Z,3.27
2019-04-26T16:13:16.111Z,3.20
2019-04-26T16:15:32.220Z,3.70
2019-04-26T16:17:59.465Z,3.80
2019-04-26T16:20:26.221Z,3.10
2019-04-26T16:22:53.439Z,3.10
2019-04-26T16:25:20.372Z,2.87
2019-04-26T16:27:47.298Z,3.20
2019-04-26T16:30:37.540Z,3.70
2019-04-26T16:33:09.628Z,3.10
2019-04-26T16:35:36.730Z,3.10
2019-04-26T16:38:22.894Z,3.37
2019-04-26T16:40:52.059Z,4.20
2019-04-26T16:43:34.819Z,2.90
2019-04-26T16:45:47.272Z,3.80
2019-04-26T16:48:17.352Z,3.60
2019-04-26T16:50:45.017Z,3.50
2019-04-26T16:53:36.445Z,4.57
2019-04-26T16:58:08.193Z,3.67
2019-04-26T17:00:50.189Z,6.50
2019-04-26T17:03:07.956Z,5.90
2019-04-26T17:08:05.156Z,4.30
2019-04-26T17:09:38.416Z,5.37
2019-04-26T17:09:41.877Z,6.10
2019-04-26T17:10:32.930Z,3.97
2019-04-26T17:12:59.722Z,4.70
2019-04-26T17:15:26.459Z,4.73
2019-04-26T17:17:53.184Z,4.07
2019-04-26T17:20:19.862Z,5.30
2019-04-26T17:22:59.624Z,4.03
2019-04-26T17:25:43.089Z,3.87
2019-04-26T17:28:14.042Z,5.20
2019-04-26T17:30:44.078Z,4.80
2019-04-26T17:33:09.234Z,5.17
2019-04-26T17:35:43.748Z,4.00
2019-04-26T17:38:11.626Z,5.10
2019-04-26T17:40:38.429Z,4.40
2019-04-26T17:43:05.365Z,3.80
2019-04-26T17:45:36.253Z,3.67
2019-04-26T17:48:02.296Z,4.07
2019-04-26T17:50:30.857Z,2.93
2019-04-26T17:52:57.731Z,3.90
2019-04-26T17:55:25.580Z,4.10
2019-04-26T17:58:08.164Z,3.43
2019-04-26T18:00:27.130Z,3.63
2019-04-26T18:02:53.603Z,3.63
2019-04-26T18:05:24.401Z,3.37
2019-04-26T18:07:55.865Z,3.53
2019-04-26T18:10:17.618Z,3.70
2019-04-26T18:12:45.552Z,3.90
2019-04-26T18:15:18.800Z,4.23
2019-04-26T18:18:14.378Z,3.80
2019-04-26T18:21:05.175Z,3.60
2019-04-26T18:23:33.821Z,4.47
2019-04-26T18:26:03.132Z,5.93
2019-04-26T18:28:30.278Z,4.10
2019-04-26T18:30:57.069Z,4.03
2019-04-26T18:33:25.950Z,4.10
2019-04-26T18:35:55.910Z,3.97
2019-04-26T18:38:22.862Z,3.83
2019-04-26T18:41:01.306Z,4.60
2019-04-26T18:43:24.120Z,3.70
2019-04-26T18:45:53.255Z,3.80
2019-04-26T18:48:21.412Z,5.20
2019-04-26T18:50:48.144Z,3.40
2019-04-26T18:53:39.255Z,5.17
2019-04-26T18:56:04.316Z,3.20
2019-04-26T18:58:34.771Z,5.70
2019-04-26T19:01:13.538Z,3.80
2019-04-26T19:03:40.484Z,5.37
2019-04-26T19:06:07.091Z,6.40
2019-04-26T19:08:45.759Z,5.10
2019-04-26T19:11:03.633Z,3.90
2019-04-26T19:13:40.395Z,5.07
2019-04-26T19:16:19.433Z,5.73
2019-04-26T19:19:03.374Z,5.00
2019-04-26T19:21:52.677Z,5.60
2019-04-26T19:24:20.921Z,5.10
2019-04-26T19:26:49.940Z,4.47
2019-04-26T19:29:18.346Z,4.43
2019-04-26T19:31:43.928Z,4.60
2019-04-26T19:34:11.619Z,4.60
2019-04-26T19:36:38.431Z,5.27
2019-04-26T19:39:06.712Z,5.47
2019-04-26T19:41:34.101Z,4.40
2019-04-26T19:44:01.779Z,4.70
2019-04-26T19:46:36.648Z,5.10
2019-04-26T19:49:25.696Z,4.73
2019-04-26T19:52:03.692Z,5.00
2019-04-26T19:54:38.378Z,4.80
2019-04-26T19:57:10.028Z,4.73
2019-04-26T19:59:36.680Z,4.37
2019-04-26T20:02:03.981Z,5.70
2019-04-26T20:04:34.039Z,6.00
2019-04-26T20:07:01.255Z,4.80
2019-04-26T20:09:28.538Z,5.07
2019-04-26T20:11:57.948Z,4.70
2019-04-26T20:14:39.461Z,4.47
2019-04-26T20:16:54.240Z,4.53
2019-04-26T20:19:34.053Z,5.00
2019-04-26T20:22:13.326Z,5.77
2019-04-26T20:24:42.988Z,5.43
2019-04-26T20:27:14.066Z,6.03
2019-04-26T20:29:40.723Z,5.07
2019-04-26T20:32:27.882Z,6.37
2019-04-26T20:35:13.478Z,5.97
2019-04-26T20:37:41.806Z,5.90
2019-04-26T20:40:20.369Z,5.87
2019-04-26T20:42:42.197Z,5.40
2019-04-26T20:45:13.514Z,6.53
2019-04-26T20:47:39.102Z,6.00
2019-04-26T20:50:06.242Z,6.63
2019-04-26T20:52:33.562Z,7.13
2019-04-26T20:55:00.864Z,9.50
2019-04-26T20:57:31.289Z,10.80
2019-04-26T21:00:01.456Z,7.90
2019-04-26T21:02:25.692Z,8.93
2019-04-26T21:04:52.348Z,9.40
2019-04-26T21:07:18.993Z,9.80
2019-04-26T21:09:50.617Z,11.57
2019-04-26T21:12:18.425Z,11.03
2019-04-26T21:14:45.698Z,16.57
2019-04-26T21:17:13.488Z,6.10
2019-04-26T21:19:41.697Z,10.20
2019-04-26T21:22:08.445Z,10.80
2019-04-26T21:24:37.609Z,10.50
2019-04-26T21:27:25.960Z,8.17
2019-04-26T21:30:10.616Z,10.37
2019-04-26T21:32:59.052Z,9.60
2019-04-26T21:35:28.385Z,8.20
2019-04-26T21:38:04.716Z,8.83
2019-04-26T21:40:35.053Z,8.33
2019-04-26T21:43:03.219Z,8.47
2019-04-26T21:45:31.035Z,8.63
2019-04-26T21:47:57.816Z,8.23
2019-04-26T21:50:24.597Z,8.30
2019-04-26T21:52:51.184Z,8.53
2019-04-26T21:55:17.956Z,8.33
2019-04-26T21:57:44.716Z,8.97
2019-04-26T22:00:25.131Z,9.33
2019-04-26T22:02:53.265Z,8.20
2019-04-26T22:05:20.289Z,9.20
2019-04-26T22:07:47.803Z,10.73
2019-04-26T22:10:24.781Z,11.53
2019-04-26T22:12:51.836Z,11.30
2019-04-26T22:15:37.553Z,13.63
2019-04-26T22:18:14.923Z,14.47
2019-04-26T22:20:51.300Z,13.47
2019-04-26T22:23:25.732Z,15.20
2019-04-26T22:25:54.079Z,17.40
2019-04-26T22:28:23.377Z,17.50
2019-04-26T22:30:50.143Z,17.50
2019-04-26T22:33:17.214Z,19.80
2019-04-26T22:35:43.825Z,21.63
2019-04-26T22:38:10.448Z,23.07
2019-04-26T22:40:37.128Z,22.80
2019-04-26T22:43:16.240Z,22.03
2019-04-26T22:45:51.001Z,25.70
2019-04-26T22:48:28.053Z,26.27
2019-04-26T22:50:58.462Z,29.53
2019-04-26T22:53:25.976Z,30.30
2019-04-26T22:55:53.494Z,31.50
2019-04-26T22:58:20.651Z,29.10
2019-04-26T23:00:49.568Z,28.33
2019-04-26T23:03:16.753Z,29.67
2019-04-26T23:05:43.477Z,29.80
2019-04-26T23:08:10.248Z,25.90
2019-04-26T23:10:43.383Z,25.00
2019-04-26T23:13:30.804Z,25.07
2019-04-26T23:16:17.169Z,21.93
2019-04-26T23:18:51.285Z,19.47
2019-04-26T23:21:27.295Z,14.70
2019-04-26T23:23:53.879Z,15.73
2019-04-26T23:26:20.684Z,15.07
2019-04-26T23:28:47.444Z,13.17
2019-04-26T23:31:14.077Z,11.63
2019-04-26T23:33:42.826Z,12.87
2019-04-26T23:36:09.772Z,13.90
2019-04-26T23:38:37.605Z,15.20
2019-04-26T23:41:07.146Z,14.07
2019-04-26T23:43:33.396Z,15.27
2019-04-26T23:45:59.998Z,15.50
2019-04-26T23:48:26.626Z,16.43
2019-04-26T23:50:53.902Z,16.73
2019-04-26T23:53:21.392Z,16.80
2019-04-26T23:55:48.236Z,16.03
2019-04-26T23:58:15.167Z,16.20
